首页
METAR-TAF:

METAR-TAF

机场 :

库拉索, 荷属安的列斯

庫拉索國際機場

纬度: 12-12N, 经度: 068-58W, 海拔: 9米

当前天气观测

该预报发布于1小时和2分钟前的23:00 UTC
风速11节,风向
温度 27°C
湿度 79%
气压 1012 hPa
能见度10公里或以上
少量云层高于2000英尺

METAR: TNCC 172300Z 10011KT 9999 FEW020 27/23 Q1012 NOSIG

时间: 20:02 (00:02 UTC)

预报

该预报发布于2小时和2分钟前的22:00 UTC
预报有效从18日的 00点(UTC)到 18日的 24点(UTC)
风速15节,风向
能见度10公里或以上
散云层高于1800英尺
短暂存在
从 18日的 06点(UTC)到 18日的 18点(UTC)
能見度: 7000
多云层高于1500英尺
阵雨

TAF: TNCC 172200Z 1800/1824 10015KT 9999 SCT018 TEMPO 1806/1818 7000 SHRA BKN015

超过4000个机场的气象观测和天气预报(METAR&TAF报告)。

可查询的气象台以黄色和红色小点在地图上表示。

将鼠标移到小点上方,可查看气象台名称。

然后点击查看天气观测和预报。

如需切换地图:点击带黑十字的绿色按钮放大地图;点击带横线的绿色按钮缩小地图;或者点击绿色箭头查看邻近地区的地图。


METAR-TAF: